Time;durP1;ratioP1;P1;durP2;ratioP2;P2;SDS_P1;SDS_P2;PMS_P1;PMS_P2;Temp;Humidity;BMP_temperature;BMP_pressure;BME280_temperature;BME280_humidity;BME280_pressure;Samples;Min_cycle;Max_cycle;Signal;HPM_P1;HPM_P2
2023/07/31 00:01:39;;;;;;;16.00;10.38;;;16.00;99.90;;;;;;5075721;28;20032;-70
2023/07/31 00:04:05;;;;;;;14.55;8.95;;;16.00;99.90;;;;;;5075740;28;20035;-71
2023/07/31 00:06:30;;;;;;;12.50;9.43;;;15.90;99.90;;;;;;5075521;28;20086;-70
2023/07/31 00:08:56;;;;;;;13.05;8.73;;;15.90;99.90;;;;;;5075494;28;20031;-71
2023/07/31 00:11:22;;;;;;;12.52;7.50;;;15.90;99.90;;;;;;5075486;28;20020;-70
2023/07/31 00:13:47;;;;;;;12.30;6.80;;;15.90;99.90;;;;;;5074303;28;20033;-71
2023/07/31 00:16:13;;;;;;;9.35;5.72;;;15.80;99.90;;;;;;5075648;28;20052;-71
2023/07/31 00:18:38;;;;;;;6.80;4.95;;;15.70;99.90;;;;;;5075577;28;20070;-71
2023/07/31 00:21:04;;;;;;;6.25;4.60;;;15.70;99.90;;;;;;5075334;28;20021;-71
2023/07/31 00:23:29;;;;;;;5.50;4.50;;;15.70;99.90;;;;;;5074944;28;20126;-71
2023/07/31 00:25:55;;;;;;;4.35;3.72;;;15.70;99.90;;;;;;5075035;28;20438;-71
2023/07/31 00:28:20;;;;;;;5.30;3.60;;;15.60;99.90;;;;;;5074981;28;20024;-71
2023/07/31 00:30:46;;;;;;;5.75;3.70;;;15.50;99.90;;;;;;5075076;28;20052;-71
2023/07/31 00:33:12;;;;;;;8.07;3.65;;;15.50;99.90;;;;;;5075262;28;20146;-71
2023/07/31 00:35:37;;;;;;;5.05;3.55;;;15.50;99.90;;;;;;5075216;28;20017;-71
2023/07/31 00:38:03;;;;;;;6.18;3.20;;;15.40;99.90;;;;;;5074892;28;20428;-71
2023/07/31 00:40:28;;;;;;;4.57;2.90;;;15.40;99.90;;;;;;5074873;28;20029;-70
2023/07/31 00:42:54;;;;;;;5.40;3.60;;;15.40;99.90;;;;;;5075047;28;20112;-70
2023/07/31 00:45:20;;;;;;;4.57;3.30;;;15.40;99.90;;;;;;5074778;28;20106;-69
2023/07/31 00:47:46;;;;;;;5.07;2.97;;;15.30;99.90;;;;;;5073813;28;20035;-69
2023/07/31 00:50:11;;;;;;;4.00;3.10;;;15.20;99.90;;;;;;5074802;28;20025;-69
2023/07/31 00:52:37;;;;;;;5.70;3.38;;;15.20;99.90;;;;;;5075000;28;20029;-69
2023/07/31 00:55:03;;;;;;;4.78;3.40;;;15.30;99.90;;;;;;5074559;28;20025;-69
2023/07/31 00:57:31;;;;;;;4.22;3.35;;;15.30;99.90;;;;;;5074489;28;20032;-69
2023/07/31 00:59:57;;;;;;;3.70;3.00;;;15.30;99.90;;;;;;5073532;28;20025;-70
2023/07/31 01:02:23;;;;;;;4.88;3.35;;;15.30;99.90;;;;;;5074646;28;20038;-70
2023/07/31 01:04:48;;;;;;;6.18;3.22;;;15.30;99.90;;;;;;5074334;28;20056;-70
2023/07/31 01:07:24;;;;;;;5.07;3.08;;;15.30;99.90;;;;;;5074576;28;20028;-70
2023/07/31 01:10:03;;;;;;;4.38;2.88;;;15.30;99.90;;;;;;5073233;28;20028;-70
2023/07/31 01:12:31;;;;;;;5.57;3.45;;;15.30;99.90;;;;;;5074249;28;20032;-71
2023/07/31 01:15:10;;;;;;;3.45;3.10;;;15.30;99.90;;;;;;5073286;28;20478;-71
2023/07/31 01:17:36;;;;;;;4.78;3.10;;;15.30;99.90;;;;;;5073307;28;20025;-71
2023/07/31 01:20:08;;;;;;;4.70;3.47;;;15.30;99.90;;;;;;5074065;28;20555;-71
2023/07/31 01:23:02;;;;;;;5.97;4.03;;;15.30;99.90;;;;;;5074057;28;20418;-71
2023/07/31 01:25:53;;;;;;;4.80;4.20;;;15.30;99.90;;;;;;5073857;28;20040;-71
2023/07/31 01:28:24;;;;;;;6.70;4.85;;;15.30;99.90;;;;;;5073913;28;20177;-70
2023/07/31 01:30:50;;;;;;;7.38;4.60;;;15.30;99.90;;;;;;5073930;28;20035;-71
2023/07/31 01:33:16;;;;;;;8.77;5.53;;;15.30;99.90;;;;;;5072929;28;20428;-70
2023/07/31 01:35:44;;;;;;;7.85;6.07;;;15.20;99.90;;;;;;5073903;28;20059;-70
2023/07/31 01:38:10;;;;;;;12.05;7.25;;;15.20;99.90;;;;;;5073717;28;20036;-71
2023/07/31 01:40:36;;;;;;;11.15;7.65;;;15.20;99.90;;;;;;5073858;28;20478;-71
2023/07/31 01:43:01;;;;;;;15.48;9.05;;;15.30;99.90;;;;;;5073868;28;20473;-70
2023/07/31 01:45:27;;;;;;;18.58;10.52;;;15.30;99.90;;;;;;5073645;28;20024;-70
2023/07/31 01:47:52;;;;;;;18.95;10.77;;;15.40;99.90;;;;;;5073830;28;20107;-71
2023/07/31 01:50:18;;;;;;;24.05;14.00;;;15.50;99.90;;;;;;5073798;28;20459;-70
2023/07/31 01:52:43;;;;;;;27.08;15.75;;;15.60;99.90;;;;;;5073588;28;20481;-70
2023/07/31 01:55:09;;;;;;;34.00;16.10;;;15.60;99.90;;;;;;5073289;28;20032;-70
2023/07/31 01:57:37;;;;;;;28.60;16.67;;;15.70;99.90;;;;;;5073415;28;20398;-70
2023/07/31 02:00:03;;;;;;;38.05;18.88;;;15.80;99.90;;;;;;5072489;28;20028;-71
2023/07/31 02:02:28;;;;;;;39.05;19.33;;;15.90;99.90;;;;;;5073521;28;20397;-71
2023/07/31 02:04:54;;;;;;;36.05;20.95;;;15.90;99.90;;;;;;5073305;28;20024;-71
2023/07/31 02:07:19;;;;;;;41.55;19.85;;;16.00;99.90;;;;;;5073631;28;20028;-72
2023/07/31 02:09:46;;;;;;;37.22;19.90;;;16.00;99.90;;;;;;5073346;28;20020;-71
2023/07/31 02:12:13;;;;;;;43.08;21.23;;;16.00;99.90;;;;;;5073428;28;20466;-70
2023/07/31 02:14:39;;;;;;;44.88;19.60;;;16.00;99.90;;;;;;5073493;28;20032;-71
2023/07/31 02:17:05;;;;;;;37.13;18.30;;;16.10;99.90;;;;;;5073444;28;20474;-71
2023/07/31 02:19:31;;;;;;;36.72;18.25;;;16.00;99.90;;;;;;5073372;28;20492;-71
2023/07/31 02:21:56;;;;;;;28.23;15.98;;;16.10;99.90;;;;;;5073165;28;20029;-71
2023/07/31 02:24:22;;;;;;;28.40;14.60;;;16.10;99.90;;;;;;5072958;28;20052;-71
2023/07/31 02:26:47;;;;;;;34.35;15.32;;;16.10;99.90;;;;;;5071804;28;20429;-71
2023/07/31 02:29:13;;;;;;;31.80;13.88;;;16.10;99.90;;;;;;5073162;28;20020;-71
2023/07/31 02:31:38;;;;;;;31.67;14.65;;;16.10;99.90;;;;;;5073409;28;20024;-71
2023/07/31 02:34:04;;;;;;;29.30;13.18;;;16.10;99.90;;;;;;5073295;28;20517;-72
2023/07/31 02:36:29;;;;;;;25.85;12.95;;;16.10;99.90;;;;;;5073060;28;20111;-71
2023/07/31 02:38:55;;;;;;;28.10;12.70;;;16.10;99.90;;;;;;5073003;28;20031;-71
2023/07/31 02:41:20;;;;;;;27.25;13.05;;;16.10;99.90;;;;;;5073250;28;20024;-71
2023/07/31 02:43:46;;;;;;;32.13;12.82;;;16.10;99.90;;;;;;5073108;28;20187;-72
2023/07/31 02:46:11;;;;;;;27.73;12.82;;;16.10;99.90;;;;;;5073273;28;20074;-71
2023/07/31 02:48:37;;;;;;;27.23;12.82;;;16.10;99.90;;;;;;5073093;28;20042;-72
2023/07/31 02:51:03;;;;;;;29.70;12.55;;;16.10;99.90;;;;;;5072927;28;20065;-72
2023/07/31 02:53:28;;;;;;;25.77;12.90;;;16.10;99.90;;;;;;5072863;28;20032;-71
2023/07/31 02:55:54;;;;;;;32.33;13.30;;;16.10;99.90;;;;;;5072765;28;20033;-71
2023/07/31 02:58:19;;;;;;;23.02;11.93;;;16.10;99.90;;;;;;5073038;28;20039;-72
2023/07/31 03:00:45;;;;;;;22.70;10.70;;;16.00;99.90;;;;;;5072900;28;20074;-72
2023/07/31 03:03:11;;;;;;;26.23;11.10;;;16.00;99.90;;;;;;5073004;28;20103;-72
2023/07/31 03:05:36;;;;;;;25.27;11.65;;;16.10;99.90;;;;;;5073505;28;20023;-72
2023/07/31 03:08:02;;;;;;;21.60;10.68;;;16.00;99.90;;;;;;5076858;28;20424;-72
2023/07/31 03:10:27;;;;;;;24.38;10.30;;;16.10;99.90;;;;;;5076808;28;20039;-72
2023/07/31 03:12:53;;;;;;;21.30;11.00;;;16.10;99.90;;;;;;5076835;28;20398;-72
2023/07/31 03:15:18;;;;;;;22.38;10.48;;;16.00;99.90;;;;;;5076518;28;20029;-72
2023/07/31 03:17:44;;;;;;;24.17;11.35;;;16.10;99.90;;;;;;5076502;28;20070;-72
2023/07/31 03:20:10;;;;;;;17.65;9.48;;;16.00;99.90;;;;;;5076543;28;20063;-72
2023/07/31 03:22:35;;;;;;;22.20;9.57;;;16.00;99.90;;;;;;5076333;28;20040;-73
2023/07/31 03:25:02;;;;;;;21.42;9.40;;;16.00;99.90;;;;;;5076209;28;20037;-72
2023/07/31 03:27:28;;;;;;;25.23;10.20;;;16.00;99.90;;;;;;5076248;28;20054;-72
2023/07/31 03:29:53;;;;;;;23.90;9.50;;;16.10;99.90;;;;;;5076460;28;20463;-72
2023/07/31 03:32:19;;;;;;;23.73;9.52;;;16.00;99.90;;;;;;5076106;28;20013;-72
2023/07/31 03:34:44;;;;;;;22.38;9.98;;;16.00;99.90;;;;;;5076178;28;20039;-73
2023/07/31 03:37:10;;;;;;;22.13;8.57;;;16.00;99.90;;;;;;5076192;28;20112;-72
2023/07/31 03:39:35;;;;;;;21.20;9.20;;;16.00;99.90;;;;;;5076006;28;20036;-72
2023/07/31 03:42:01;;;;;;;21.30;8.63;;;16.00;99.90;;;;;;5074730;28;20078;-72
2023/07/31 03:44:26;;;;;;;19.95;8.55;;;16.00;99.90;;;;;;5075876;28;20097;-72
2023/07/31 03:46:52;;;;;;;21.08;9.32;;;16.00;99.90;;;;;;5075987;28;20035;-72
2023/07/31 03:49:18;;;;;;;23.65;9.57;;;16.00;99.90;;;;;;5076056;28;20050;-71
2023/07/31 03:51:44;;;;;;;19.45;9.02;;;16.00;99.90;;;;;;5075944;28;20037;-71
2023/07/31 03:54:10;;;;;;;22.05;8.85;;;16.00;99.90;;;;;;5075965;28;20070;-71
2023/07/31 03:56:35;;;;;;;21.73;9.38;;;16.00;99.90;;;;;;5075705;28;20405;-72
2023/07/31 03:59:01;;;;;;;23.33;9.43;;;16.00;99.90;;;;;;5075956;28;20028;-72
2023/07/31 04:01:27;;;;;;;18.92;8.05;;;16.00;99.90;;;;;;5075631;28;20363;-72
2023/07/31 04:03:52;;;;;;;19.52;8.90;;;16.00;99.90;;;;;;5075684;28;20064;-72
2023/07/31 04:06:18;;;;;;;19.35;8.35;;;16.00;99.90;;;;;;5075539;28;20103;-72
2023/07/31 04:08:45;;;;;;;17.30;7.80;;;16.10;99.90;;;;;;5075591;28;20078;-73
2023/07/31 04:11:11;;;;;;;14.77;7.13;;;16.10;99.90;;;;;;5075613;28;20110;-72
2023/07/31 04:13:37;;;;;;;22.15;8.80;;;16.10;99.90;;;;;;5075692;28;20393;-71
2023/07/31 04:16:02;;;;;;;19.15;8.15;;;16.20;99.90;;;;;;5075662;28;20024;-72
2023/07/31 04:18:30;;;;;;;20.65;8.35;;;16.10;99.90;;;;;;5074091;28;20123;-72
2023/07/31 04:20:58;;;;;;;24.35;9.05;;;16.10;99.90;;;;;;5075496;28;20035;-72
2023/07/31 04:23:23;;;;;;;20.48;7.90;;;16.10;99.90;;;;;;5074962;28;20082;-72
2023/07/31 04:25:49;;;;;;;21.70;8.43;;;16.10;99.90;;;;;;5075176;28;20024;-73
2023/07/31 04:28:15;;;;;;;20.92;7.88;;;16.10;99.90;;;;;;5075143;28;20078;-73
2023/07/31 04:30:40;;;;;;;28.98;8.82;;;16.20;99.90;;;;;;5075109;28;20111;-73
2023/07/31 04:33:06;;;;;;;20.35;8.45;;;16.20;99.90;;;;;;5075227;28;20027;-72
2023/07/31 04:35:31;;;;;;;22.10;8.50;;;16.20;99.90;;;;;;5073861;28;20455;-72
2023/07/31 04:37:57;;;;;;;18.20;7.97;;;16.20;99.90;;;;;;5075172;28;20028;-72
2023/07/31 04:40:22;;;;;;;20.63;8.13;;;16.20;99.90;;;;;;5075000;28;20028;-72
2023/07/31 04:42:48;;;;;;;24.60;8.18;;;16.20;99.90;;;;;;5075087;28;20032;-72
2023/07/31 04:45:14;;;;;;;18.10;7.47;;;16.30;99.90;;;;;;5074782;28;20036;-72
2023/07/31 04:47:39;;;;;;;19.35;7.65;;;16.30;99.90;;;;;;5074926;28;20032;-72
2023/07/31 04:50:05;;;;;;;21.85;8.15;;;16.30;99.90;;;;;;5074717;28;20027;-72
2023/07/31 04:52:31;;;;;;;19.08;7.40;;;16.30;99.90;;;;;;5074654;28;20477;-73
2023/07/31 04:54:56;;;;;;;20.13;7.97;;;16.30;99.90;;;;;;5074648;28;20029;-72
2023/07/31 04:57:22;;;;;;;20.25;7.80;;;16.30;99.90;;;;;;5074593;28;20115;-73
2023/07/31 04:59:47;;;;;;;17.13;7.25;;;16.30;99.90;;;;;;5074606;28;20035;-72
2023/07/31 05:02:13;;;;;;;14.18;7.95;;;16.40;99.90;;;;;;5074575;28;20032;-72
2023/07/31 05:04:39;;;;;;;19.05;8.90;;;16.40;99.90;;;;;;5074477;28;20452;-72
2023/07/31 05:07:04;;;;;;;18.25;7.38;;;16.40;99.90;;;;;;5074376;28;20379;-72
2023/07/31 05:09:30;;;;;;;16.15;7.22;;;16.40;99.90;;;;;;5074416;28;20474;-72
2023/07/31 05:11:55;;;;;;;13.20;6.88;;;16.50;99.90;;;;;;5074264;28;20029;-72
2023/07/31 05:14:21;;;;;;;18.48;7.88;;;16.50;99.90;;;;;;5074318;28;20060;-73
2023/07/31 05:16:47;;;;;;;14.57;7.43;;;16.50;99.90;;;;;;5074279;28;20115;-72
2023/07/31 05:19:12;;;;;;;15.80;6.82;;;16.60;99.90;;;;;;5074394;28;20031;-72
2023/07/31 05:21:38;;;;;;;18.80;7.57;;;16.60;99.90;;;;;;5074046;28;20043;-71
2023/07/31 05:24:04;;;;;;;23.02;7.57;;;16.50;99.90;;;;;;5073511;28;20490;-72
2023/07/31 05:26:30;;;;;;;17.30;7.40;;;16.60;99.90;;;;;;5073798;28;20020;-72
2023/07/31 05:28:56;;;;;;;22.77;7.45;;;16.60;99.90;;;;;;5073518;28;20031;-72
2023/07/31 05:31:22;;;;;;;19.23;7.90;;;16.60;99.90;;;;;;5073878;28;20020;-72
2023/07/31 05:33:49;;;;;;;20.80;8.07;;;16.70;99.90;;;;;;5074054;28;20020;-72
2023/07/31 05:36:15;;;;;;;18.15;7.05;;;16.70;99.90;;;;;;5074024;28;20052;-73
2023/07/31 05:38:42;;;;;;;16.35;6.97;;;16.70;99.90;;;;;;5073698;28;20509;-72
2023/07/31 05:41:08;;;;;;;17.20;7.93;;;16.70;99.90;;;;;;5073953;28;20482;-72
2023/07/31 05:43:34;;;;;;;20.83;7.68;;;16.70;99.90;;;;;;5073613;28;20127;-72
2023/07/31 05:45:59;;;;;;;16.38;7.55;;;16.70;99.90;;;;;;5073624;28;20493;-72
2023/07/31 05:48:25;;;;;;;19.65;8.32;;;16.70;99.90;;;;;;5073854;28;20033;-72
2023/07/31 05:50:50;;;;;;;20.40;7.80;;;16.70;99.90;;;;;;5073674;28;20020;-72
2023/07/31 05:53:16;;;;;;;17.40;7.72;;;16.70;99.90;;;;;;5073642;28;20028;-72
2023/07/31 05:55:41;;;;;;;15.55;7.35;;;16.70;99.90;;;;;;5073829;28;20040;-71
2023/07/31 05:58:07;;;;;;;17.83;7.47;;;16.60;99.90;;;;;;5069985;28;20378;-71
2023/07/31 06:00:32;;;;;;;17.15;7.30;;;16.60;99.90;;;;;;5067504;28;20402;-71
2023/07/31 06:02:58;;;;;;;19.02;7.00;;;16.60;99.90;;;;;;5061095;28;20043;-70
2023/07/31 06:05:23;;;;;;;20.23;8.18;;;16.70;99.90;;;;;;5055648;28;20041;-70
2023/07/31 06:07:49;;;;;;;14.40;7.55;;;16.80;99.90;;;;;;5069730;28;20016;-72
2023/07/31 06:10:14;;;;;;;16.55;7.32;;;16.80;99.90;;;;;;5066634;28;20166;-70
2023/07/31 06:12:40;;;;;;;17.92;7.95;;;16.80;99.90;;;;;;5062989;28;20035;-72
2023/07/31 06:15:06;;;;;;;17.48;7.18;;;16.80;99.90;;;;;;5069571;28;20066;-72
2023/07/31 06:17:32;;;;;;;20.80;7.63;;;16.90;99.90;;;;;;5071659;28;20028;-72
2023/07/31 06:19:58;;;;;;;19.42;7.60;;;16.90;99.90;;;;;;5071634;28;20043;-72
2023/07/31 06:22:23;;;;;;;14.63;7.65;;;16.90;99.90;;;;;;5071240;28;20398;-71
2023/07/31 06:24:49;;;;;;;20.27;8.10;;;16.80;99.90;;;;;;5071354;28;20462;-70
2023/07/31 06:27:14;;;;;;;19.00;8.13;;;16.70;99.90;;;;;;5058602;28;20459;-71
2023/07/31 06:29:41;;;;;;;22.73;9.48;;;16.60;99.90;;;;;;5065632;28;20056;-67
2023/07/31 06:32:07;;;;;;;17.65;8.98;;;16.60;99.90;;;;;;5071557;28;20025;-72
2023/07/31 06:34:32;;;;;;;23.08;9.35;;;16.50;99.90;;;;;;5074769;28;20029;-71
2023/07/31 06:36:58;;;;;;;21.38;9.10;;;16.50;99.90;;;;;;5083423;28;20054;-72
2023/07/31 06:39:23;;;;;;;23.02;9.30;;;16.50;99.90;;;;;;5074905;28;20025;-72
2023/07/31 06:41:49;;;;;;;23.27;9.77;;;16.50;99.90;;;;;;5073742;28;20074;-69
2023/07/31 06:44:14;;;;;;;21.42;10.15;;;16.50;99.90;;;;;;5075037;28;20074;-69
2023/07/31 06:46:40;;;;;;;27.45;10.43;;;16.50;99.90;;;;;;5076110;28;20033;-69
2023/07/31 06:49:05;;;;;;;22.95;9.68;;;16.50;99.90;;;;;;5076547;28;20024;-69
2023/07/31 06:51:31;;;;;;;21.02;9.32;;;16.50;99.90;;;;;;5063698;28;20032;-68
2023/07/31 06:53:57;;;;;;;21.27;9.48;;;16.50;99.90;;;;;;5073279;28;20031;-73
2023/07/31 06:56:23;;;;;;;21.27;9.77;;;16.50;99.90;;;;;;5074052;28;20024;-68
2023/07/31 06:58:49;;;;;;;23.77;9.85;;;16.50;99.90;;;;;;5075268;28;20398;-67
2023/07/31 07:01:14;;;;;;;22.13;9.60;;;16.60;99.90;;;;;;5069785;28;20123;-68
2023/07/31 07:03:40;;;;;;;21.55;9.32;;;16.70;99.90;;;;;;5076352;28;20025;-68
2023/07/31 07:06:05;;;;;;;19.08;9.00;;;16.60;99.90;;;;;;5071222;28;20039;-68
2023/07/31 07:08:31;;;;;;;17.08;8.68;;;16.60;99.90;;;;;;5075719;28;20028;-69
2023/07/31 07:10:56;;;;;;;16.23;8.82;;;16.70;99.90;;;;;;5073354;28;20139;-67
2023/07/31 07:13:22;;;;;;;17.60;9.95;;;16.70;99.90;;;;;;5062602;28;20032;-70
2023/07/31 07:15:49;;;;;;;21.23;10.00;;;16.60;99.90;;;;;;5072814;28;20074;-70
2023/07/31 07:18:15;;;;;;;24.65;10.07;;;16.60;99.90;;;;;;5073712;28;20417;-71
2023/07/31 07:20:41;;;;;;;17.45;10.85;;;16.50;99.90;;;;;;5071902;28;20036;-71
2023/07/31 07:23:06;;;;;;;25.75;11.57;;;16.50;99.90;;;;;;5071572;28;20119;-69
2023/07/31 07:25:32;;;;;;;20.90;10.45;;;16.50;99.90;;;;;;5067139;28;20033;-71
2023/07/31 07:27:57;;;;;;;20.20;10.27;;;16.50;99.90;;;;;;5072701;28;20386;-70
2023/07/31 07:30:25;;;;;;;19.23;10.63;;;16.60;99.90;;;;;;5070665;28;20471;-71
2023/07/31 07:32:50;;;;;;;25.10;11.35;;;16.60;99.90;;;;;;5069806;28;20032;-73
2023/07/31 07:35:16;;;;;;;23.48;12.35;;;16.70;99.90;;;;;;5072351;28;20031;-72
2023/07/31 07:37:41;;;;;;;22.08;12.85;;;16.70;99.90;;;;;;5075326;28;20078;-73
2023/07/31 07:40:08;;;;;;;23.52;12.45;;;16.80;99.90;;;;;;5074505;28;20028;-74
2023/07/31 07:42:33;;;;;;;30.23;13.13;;;16.80;99.90;;;;;;5073690;28;20110;-73
2023/07/31 07:44:59;;;;;;;28.10;12.80;;;16.80;99.90;;;;;;5072518;28;20086;-73
2023/07/31 07:47:24;;;;;;;22.20;12.35;;;16.80;99.90;;;;;;5064324;28;20025;-73
2023/07/31 07:49:50;;;;;;;25.15;12.35;;;16.80;99.90;;;;;;5067833;28;20035;-72
2023/07/31 07:52:15;;;;;;;22.80;11.55;;;16.70;99.90;;;;;;5071715;28;20115;-74
2023/07/31 07:54:41;;;;;;;21.02;11.45;;;16.70;99.90;;;;;;5071928;28;20051;-73
2023/07/31 07:57:06;;;;;;;14.82;10.10;;;16.80;99.90;;;;;;5067796;28;20029;-73
2023/07/31 07:59:32;;;;;;;18.77;10.48;;;16.80;99.90;;;;;;5074024;28;20036;-73
2023/07/31 08:01:57;;;;;;;20.38;10.57;;;16.80;99.90;;;;;;5069281;28;20051;-73
2023/07/31 08:04:23;;;;;;;19.13;10.07;;;16.80;99.90;;;;;;5068498;28;20037;-72
2023/07/31 08:06:48;;;;;;;20.70;10.45;;;16.80;99.90;;;;;;5068036;28;20048;-73
2023/07/31 08:09:14;;;;;;;14.00;9.68;;;16.90;99.90;;;;;;5071340;28;20032;-74
2023/07/31 08:11:40;;;;;;;15.88;9.38;;;16.90;99.90;;;;;;5073707;28;20035;-73
2023/07/31 08:14:05;;;;;;;18.27;10.07;;;16.90;99.90;;;;;;5073622;28;20036;-74
2023/07/31 08:16:31;;;;;;;14.68;8.80;;;16.90;99.90;;;;;;5073339;28;20032;-74
2023/07/31 08:18:56;;;;;;;16.88;9.43;;;16.90;99.90;;;;;;5073772;28;20039;-74
2023/07/31 08:21:23;;;;;;;16.00;9.02;;;16.90;99.90;;;;;;5055446;28;20151;-73
2023/07/31 08:23:48;;;;;;;20.33;9.38;;;16.90;99.90;;;;;;5070381;28;20053;-73
2023/07/31 08:26:18;;;;;;;19.75;9.70;;;16.90;99.90;;;;;;5072339;28;20522;-72
2023/07/31 08:28:44;;;;;;;16.90;8.73;;;16.90;99.90;;;;;;5074518;28;20024;-73
2023/07/31 08:31:10;;;;;;;20.83;9.68;;;16.90;99.90;;;;;;5071578;28;20501;-76
2023/07/31 08:33:36;;;;;;;16.50;8.50;;;16.80;99.90;;;;;;5072200;28;20028;-76
2023/07/31 08:36:02;;;;;;;13.88;7.88;;;16.70;99.90;;;;;;5068976;28;20476;-73
2023/07/31 08:38:29;;;;;;;16.13;8.60;;;16.80;99.90;;;;;;5066844;28;20028;-74
2023/07/31 08:40:56;;;;;;;10.73;7.45;;;16.90;99.90;;;;;;5074969;28;20379;-72
2023/07/31 08:43:25;;;;;;;12.60;7.22;;;16.90;99.90;;;;;;5074317;28;20120;-72
2023/07/31 08:45:50;;;;;;;11.77;7.25;;;16.90;99.90;;;;;;5070028;28;20529;-71
2023/07/31 08:48:17;;;;;;;11.52;7.72;;;16.90;99.90;;;;;;5072329;28;20063;-71
2023/07/31 08:50:43;;;;;;;9.95;7.45;;;16.90;99.90;;;;;;5070349;28;20082;-72
2023/07/31 08:53:09;;;;;;;12.13;7.65;;;16.90;99.90;;;;;;5061546;28;20393;-71
2023/07/31 08:55:37;;;;;;;11.73;6.45;;;17.10;99.90;;;;;;5073088;28;20059;-71
2023/07/31 08:58:04;;;;;;;14.45;7.53;;;17.10;99.90;;;;;;5065582;28;20028;-70
2023/07/31 09:00:31;;;;;;;12.90;7.05;;;17.20;99.90;;;;;;5068090;28;21360;-69
2023/07/31 09:03:02;;;;;;;13.90;6.45;;;17.20;99.90;;;;;;5068473;28;20094;-69
2023/07/31 09:05:29;;;;;;;9.10;5.85;;;17.20;99.90;;;;;;5072789;28;20035;-71
2023/07/31 09:07:56;;;;;;;11.63;5.93;;;17.20;99.90;;;;;;5071656;28;20020;-71
2023/07/31 09:10:22;;;;;;;8.27;5.72;;;17.20;99.90;;;;;;5073049;28;20129;-70
2023/07/31 09:12:50;;;;;;;7.68;5.90;;;17.30;99.90;;;;;;5055296;28;20052;-68
2023/07/31 09:15:16;;;;;;;10.45;4.82;;;17.40;99.90;;;;;;5072467;28;20038;-69
2023/07/31 09:17:42;;;;;;;12.82;6.00;;;17.30;99.90;;;;;;5071388;28;20029;-68
2023/07/31 09:20:22;;;;;;;8.63;5.50;;;17.20;99.90;;;;;;5071774;28;20020;-69
2023/07/31 09:22:49;;;;;;;11.68;5.60;;;17.10;99.90;;;;;;5058969;28;20528;-69
2023/07/31 09:28:08;;;;;;;9.48;5.97;;;16.90;99.90;;;;;;5087669;28;20317;-68
2023/07/31 09:30:50;;;;;;;9.57;5.65;;;16.90;99.90;;;;;;5077797;28;20358;-69
2023/07/31 09:33:17;;;;;;;8.82;5.57;;;16.90;99.90;;;;;;5072721;28;20063;-68
2023/07/31 09:35:43;;;;;;;9.63;6.43;;;16.90;99.90;;;;;;5072909;28;20040;-67
2023/07/31 09:38:11;;;;;;;11.73;7.25;;;16.90;99.90;;;;;;5073108;28;20028;-69
2023/07/31 09:40:40;;;;;;;9.95;6.60;;;16.90;99.90;;;;;;5073719;28;20115;-69
2023/07/31 09:43:07;;;;;;;9.82;6.75;;;17.00;99.90;;;;;;5081487;28;20024;-69
2023/07/31 09:45:36;;;;;;;8.15;5.32;;;16.90;99.90;;;;;;5071808;28;20451;-69
2023/07/31 09:48:02;;;;;;;8.15;5.05;;;16.90;99.90;;;;;;5067673;28;20034;-68
2023/07/31 09:50:28;;;;;;;7.38;4.38;;;16.90;99.90;;;;;;5069989;28;20047;-68
2023/07/31 09:52:54;;;;;;;6.35;4.53;;;16.90;99.90;;;;;;5071528;28;20056;-68
2023/07/31 09:55:20;;;;;;;8.93;4.47;;;16.90;99.90;;;;;;5069435;28;20025;-68
2023/07/31 09:57:48;;;;;;;7.18;4.30;;;16.90;99.90;;;;;;5073032;28;20028;-68
2023/07/31 10:00:16;;;;;;;8.70;4.47;;;16.80;99.90;;;;;;5073027;28;20029;-69
2023/07/31 10:02:46;;;;;;;9.18;4.28;;;16.90;99.90;;;;;;5076219;28;20482;-68
2023/07/31 10:05:15;;;;;;;6.20;4.30;;;16.90;99.90;;;;;;5068919;28;20123;-67
2023/07/31 10:07:45;;;;;;;6.53;3.90;;;16.80;99.90;;;;;;5070810;28;20027;-70
2023/07/31 10:10:11;;;;;;;6.75;3.95;;;17.00;99.90;;;;;;5069052;28;20037;-68
2023/07/31 10:12:37;;;;;;;7.05;4.43;;;17.10;99.90;;;;;;5068235;28;20020;-68
2023/07/31 10:15:04;;;;;;;8.02;4.35;;;17.20;99.90;;;;;;5068134;28;20047;-68
2023/07/31 10:17:31;;;;;;;6.10;4.30;;;17.10;99.90;;;;;;5082996;28;20032;-68
2023/07/31 10:19:59;;;;;;;5.22;3.58;;;17.10;99.90;;;;;;5068911;28;20024;-69
2023/07/31 10:22:25;;;;;;;6.13;4.18;;;17.10;99.90;;;;;;5066771;28;20067;-70
2023/07/31 10:24:54;;;;;;;7.47;4.22;;;17.30;99.90;;;;;;5080288;28;20060;-70
2023/07/31 10:27:20;;;;;;;6.47;4.63;;;17.20;99.90;;;;;;5074634;28;20410;-70
2023/07/31 10:29:47;;;;;;;7.78;4.68;;;17.30;99.90;;;;;;5067432;28;20029;-69
2023/07/31 10:32:15;;;;;;;4.75;3.92;;;17.20;99.90;;;;;;5067527;28;20439;-69
2023/07/31 10:34:41;;;;;;;6.55;4.65;;;17.30;99.90;;;;;;5067817;28;20082;-71
2023/07/31 10:37:27;;;;;;;7.45;5.13;;;17.30;99.90;;;;;;5079709;28;20111;-69
2023/07/31 10:40:16;;;;;;;8.23;5.38;;;17.40;99.90;;;;;;5068341;28;20056;-69
2023/07/31 10:42:47;;;;;;;8.63;5.47;;;17.20;99.90;;;;;;5050959;28;20029;-70
2023/07/31 10:45:14;;;;;;;9.55;5.03;;;17.10;99.90;;;;;;5054724;28;20115;-70
2023/07/31 10:47:44;;;;;;;8.75;5.10;;;17.00;99.90;;;;;;5064482;28;20029;-70
2023/07/31 10:50:20;;;;;;;8.23;5.15;;;17.00;99.90;;;;;;5055156;28;20025;-70
2023/07/31 10:52:49;;;;;;;7.75;5.20;;;17.00;99.90;;;;;;5049108;28;20017;-70
2023/07/31 10:55:22;;;;;;;12.45;5.55;;;16.90;99.90;;;;;;5055599;28;20024;-71
2023/07/31 10:57:48;;;;;;;8.50;4.80;;;17.00;99.90;;;;;;5056500;28;20053;-70
2023/07/31 11:00:29;;;;;;;9.35;5.18;;;17.00;99.90;;;;;;5062252;28;20073;-69
2023/07/31 11:05:50;;;;;;;5.30;4.03;;;17.00;99.90;;;;;;5088308;27;20409;-68
2023/07/31 11:08:20;;;;;;;5.95;4.30;;;17.00;99.90;;;;;;5088395;28;20028;-68
2023/07/31 11:10:47;;;;;;;5.82;4.13;;;17.20;99.90;;;;;;5087755;28;20035;-66
2023/07/31 11:13:14;;;;;;;5.40;3.80;;;17.20;99.90;;;;;;5088364;28;20025;-67
2023/07/31 11:15:39;;;;;;;7.10;4.28;;;17.20;99.90;;;;;;5085516;28;20028;-68
2023/07/31 11:18:08;;;;;;;4.65;3.25;;;17.30;99.90;;;;;;5089553;28;20367;-68
2023/07/31 11:20:35;;;;;;;5.20;3.17;;;17.30;99.90;;;;;;5088223;28;20054;-68
2023/07/31 11:23:03;;;;;;;4.50;3.65;;;17.20;99.90;;;;;;5088172;28;20042;-68
2023/07/31 11:25:31;;;;;;;5.25;2.97;;;17.30;99.90;;;;;;5087605;28;20397;-68
2023/07/31 11:27:58;;;;;;;4.43;3.22;;;17.30;99.90;;;;;;5088374;28;20063;-68
2023/07/31 11:30:23;;;;;;;4.82;3.35;;;17.20;99.90;;;;;;5086467;28;20078;-68
2023/07/31 11:32:50;;;;;;;4.38;3.47;;;17.30;99.90;;;;;;5087610;28;20120;-67
2023/07/31 11:35:16;;;;;;;4.32;3.30;;;17.30;99.90;;;;;;5089978;28;20397;-67
2023/07/31 11:37:43;;;;;;;3.50;2.72;;;17.30;99.90;;;;;;5086744;28;20040;-67
2023/07/31 11:40:09;;;;;;;3.83;2.90;;;17.30;99.90;;;;;;5088082;28;20024;-66
2023/07/31 11:42:35;;;;;;;3.50;3.20;;;17.30;99.90;;;;;;5088624;28;20028;-68
2023/07/31 11:45:03;;;;;;;3.47;2.70;;;17.20;99.90;;;;;;5085955;28;20070;-67
2023/07/31 11:47:30;;;;;;;9.30;3.80;;;17.20;99.90;;;;;;5088217;28;20035;-68
2023/07/31 11:49:56;;;;;;;5.47;3.90;;;17.20;99.90;;;;;;5088011;28;20493;-68
2023/07/31 11:52:23;;;;;;;4.43;3.67;;;17.20;99.90;;;;;;5087274;28;20036;-68
2023/07/31 11:54:49;;;;;;;5.82;4.30;;;17.20;99.90;;;;;;5089129;28;20386;-68
2023/07/31 11:57:16;;;;;;;7.32;4.72;;;17.20;99.90;;;;;;5088284;28;20020;-69
2023/07/31 11:59:42;;;;;;;7.63;5.13;;;17.20;99.90;;;;;;5087321;28;20150;-69
2023/07/31 12:02:08;;;;;;;5.97;4.82;;;17.20;99.90;;;;;;5088083;28;20073;-68
2023/07/31 12:04:34;;;;;;;8.82;4.88;;;17.20;99.90;;;;;;5086847;28;20498;-69
2023/07/31 12:07:01;;;;;;;8.88;5.57;;;17.30;99.90;;;;;;5089421;28;20027;-69
2023/07/31 12:09:26;;;;;;;11.30;5.50;;;17.30;99.90;;;;;;5088550;28;20074;-70
2023/07/31 12:11:52;;;;;;;7.70;5.30;;;17.40;99.90;;;;;;5087785;28;20032;-69
2023/07/31 12:14:22;;;;;;;8.77;5.32;;;17.40;99.90;;;;;;5087487;28;20039;-69
2023/07/31 12:16:54;;;;;;;6.82;5.47;;;17.60;99.90;;;;;;5055975;28;20494;-69
2023/07/31 12:19:20;;;;;;;8.60;5.10;;;17.70;99.90;;;;;;5054014;28;20501;-69
2023/07/31 12:21:45;;;;;;;6.70;4.80;;;17.90;99.90;;;;;;5054476;28;20037;-69
2023/07/31 12:24:11;;;;;;;6.32;5.00;;;18.00;99.90;;;;;;5052543;28;20521;-69
2023/07/31 12:26:37;;;;;;;8.63;5.65;;;18.10;99.90;;;;;;5052453;28;20032;-69
2023/07/31 12:29:07;;;;;;;8.27;5.53;;;18.20;99.90;;;;;;5052863;28;20029;-69
2023/07/31 12:31:34;;;;;;;10.00;5.20;;;18.30;99.90;;;;;;5047263;28;20394;-70
2023/07/31 12:33:59;;;;;;;7.68;5.28;;;18.40;99.90;;;;;;5054621;28;20241;-69
2023/07/31 12:36:25;;;;;;;7.65;5.00;;;18.30;99.90;;;;;;5052320;28;20120;-70
2023/07/31 12:38:51;;;;;;;6.95;5.00;;;18.60;99.90;;;;;;5054040;28;20078;-70
2023/07/31 12:41:17;;;;;;;7.78;4.80;;;18.80;99.90;;;;;;5055129;28;20025;-70